createdAt,value
2018-12-10T00:36:21.135Z,11.37
2018-12-10T00:38:47.365Z,11.37
2018-12-10T00:41:13.583Z,10.80
2018-12-10T00:43:39.809Z,11.63
2018-12-10T00:48:34.254Z,11.67
2018-12-10T00:51:00.951Z,12.03
2018-12-10T00:53:28.806Z,12.33
2018-12-10T00:55:55.445Z,14.00
2018-12-10T00:58:23.667Z,14.57
2018-12-10T01:00:50.376Z,13.77
2018-12-10T01:03:17.372Z,15.57
2018-12-10T01:05:44.254Z,13.87
2018-12-10T01:08:11.944Z,14.27
2018-12-10T01:10:38.897Z,13.63
2018-12-10T01:13:05.623Z,14.03
2018-12-10T01:15:32.614Z,14.17
2018-12-10T01:17:59.259Z,14.53
2018-12-10T01:20:26.352Z,14.87
2018-12-10T01:22:53.321Z,14.33
2018-12-10T01:25:19.963Z,13.63
2018-12-10T01:27:47.027Z,11.57
2018-12-10T01:30:13.714Z,11.30
2018-12-10T01:32:40.362Z,10.27
2018-12-10T01:35:07.361Z,9.63
2018-12-10T01:37:34.034Z,9.87
2018-12-10T01:40:00.663Z,8.83
2018-12-10T01:42:27.345Z,7.53
2018-12-10T01:44:54.296Z,7.13
2018-12-10T01:47:20.933Z,6.70
2018-12-10T01:49:48.013Z,6.33
2018-12-10T01:52:14.652Z,5.87
2018-12-10T01:54:41.304Z,5.77
2018-12-10T01:57:08.380Z,6.10
2018-12-10T01:59:35.356Z,5.67
2018-12-10T02:02:01.987Z,6.00
2018-12-10T02:04:28.869Z,6.10
2018-12-10T02:06:55.658Z,5.67
2018-12-10T02:09:22.296Z,6.33
2018-12-10T02:11:48.980Z,5.40
2018-12-10T02:14:15.621Z,6.50
2018-12-10T02:16:42.263Z,6.23
2018-12-10T02:19:10.569Z,6.13
2018-12-10T02:21:37.214Z,5.57
2018-12-10T02:24:04.179Z,7.07
2018-12-10T02:26:32.312Z,6.70
2018-12-10T02:29:04.770Z,7.20
2018-12-10T02:31:32.723Z,7.50
2018-12-10T02:33:59.370Z,6.50
2018-12-10T02:36:26.048Z,6.60
2018-12-10T02:38:52.918Z,5.57
2018-12-10T02:41:19.670Z,6.00
2018-12-10T02:43:46.312Z,5.87
2018-12-10T02:46:13.284Z,5.47
2018-12-10T02:48:39.982Z,7.07
2018-12-10T02:51:06.621Z,6.23
2018-12-10T02:53:34.555Z,6.47
2018-12-10T02:56:01.378Z,6.67
2018-12-10T02:58:28.591Z,6.50
2018-12-10T03:00:55.506Z,6.63
2018-12-10T03:03:22.280Z,6.73
2018-12-10T03:05:48.923Z,6.90
2018-12-10T03:08:16.801Z,7.53
2018-12-10T03:10:43.437Z,7.20
2018-12-10T03:13:11.426Z,7.20
2018-12-10T03:15:39.481Z,7.43
2018-12-10T03:18:07.442Z,7.37
2018-12-10T03:20:35.703Z,7.23
2018-12-10T03:23:02.595Z,8.33
2018-12-10T03:25:29.369Z,7.83
2018-12-10T03:27:56.070Z,8.20
2018-12-10T03:30:23.960Z,8.43
2018-12-10T03:32:51.741Z,8.47
2018-12-10T03:35:19.663Z,8.07
2018-12-10T03:37:46.369Z,8.70
2018-12-10T03:40:13.416Z,7.50
2018-12-10T03:42:40.483Z,6.30
2018-12-10T03:45:07.907Z,6.23
2018-12-10T03:47:34.543Z,6.17
2018-12-10T03:50:01.496Z,5.13
2018-12-10T03:52:28.646Z,5.03
2018-12-10T03:54:55.635Z,5.23
2018-12-10T03:57:22.276Z,4.83
2018-12-10T03:59:48.955Z,4.67
2018-12-10T04:02:15.608Z,5.10
2018-12-10T04:04:42.546Z,4.83
2018-12-10T04:07:10.106Z,5.90
2018-12-10T04:09:37.075Z,5.93
2018-12-10T04:12:03.730Z,5.97
2018-12-10T04:14:30.418Z,6.30
2018-12-10T04:16:57.069Z,6.53
2018-12-10T04:19:24.044Z,6.10
2018-12-10T04:21:50.733Z,6.23
2018-12-10T04:24:17.486Z,6.00
2018-12-10T04:26:44.345Z,7.10
2018-12-10T04:29:11.483Z,7.57
2018-12-10T04:31:38.447Z,7.10
2018-12-10T04:34:05.083Z,7.37
2018-12-10T04:36:31.793Z,7.93
2018-12-10T04:38:58.434Z,7.57
2018-12-10T04:41:25.483Z,8.03
2018-12-10T04:43:52.529Z,7.80
2018-12-10T04:46:19.179Z,8.13
2018-12-10T04:48:46.145Z,7.17
2018-12-10T04:51:12.816Z,8.27
2018-12-10T04:53:39.464Z,8.77
2018-12-10T04:56:06.111Z,8.33
2018-12-10T04:58:33.185Z,8.77
2018-12-10T05:01:00.158Z,8.50
2018-12-10T05:03:26.797Z,9.20
2018-12-10T05:05:53.464Z,9.17
2018-12-10T05:08:20.508Z,8.90
2018-12-10T05:10:47.518Z,9.83
2018-12-10T05:13:14.466Z,9.17
2018-12-10T05:15:41.208Z,10.03
2018-12-10T05:18:07.832Z,10.30
2018-12-10T05:20:35.789Z,10.07
2018-12-10T05:23:02.418Z,9.43
2018-12-10T05:25:29.056Z,9.57
2018-12-10T05:27:55.745Z,8.63
2018-12-10T05:30:22.689Z,8.00
2018-12-10T05:32:49.324Z,7.30
2018-12-10T05:35:16.032Z,7.50
2018-12-10T05:37:43.819Z,6.80
2018-12-10T05:40:11.680Z,6.47
2018-12-10T05:42:38.419Z,6.60
2018-12-10T05:45:06.048Z,6.57
2018-12-10T05:47:32.691Z,7.27
2018-12-10T05:49:59.493Z,6.13
2018-12-10T05:52:26.132Z,5.97
2018-12-10T05:54:52.781Z,5.87
2018-12-10T05:57:19.461Z,6.70
2018-12-10T05:59:46.453Z,7.00
2018-12-10T06:02:13.080Z,7.20
2018-12-10T06:04:39.782Z,7.77
2018-12-10T06:07:06.420Z,7.63
2018-12-10T06:09:33.403Z,6.40
2018-12-10T06:12:00.100Z,5.00
2018-12-10T06:14:26.745Z,4.23
2018-12-10T06:16:53.365Z,4.10
2018-12-10T06:19:20.048Z,4.30
2018-12-10T06:21:47.002Z,3.63
2018-12-10T06:24:13.635Z,4.70
2018-12-10T06:26:41.544Z,5.00
2018-12-10T06:29:08.531Z,3.90
2018-12-10T06:31:35.227Z,4.43
2018-12-10T06:34:01.929Z,3.70
2018-12-10T06:36:28.886Z,3.60
2018-12-10T06:38:55.516Z,3.40
2018-12-10T06:41:22.376Z,3.13
2018-12-10T06:43:49.192Z,3.50
2018-12-10T06:46:15.852Z,3.70
2018-12-10T06:48:43.748Z,3.80
2018-12-10T06:51:10.525Z,3.83
2018-12-10T06:53:37.410Z,3.30
2018-12-10T06:56:04.088Z,3.30
2018-12-10T06:58:31.880Z,3.30
2018-12-10T07:01:00.023Z,4.03
2018-12-10T07:03:27.712Z,3.60
2018-12-10T07:05:54.665Z,4.80
2018-12-10T07:08:21.295Z,3.93
2018-12-10T07:10:48.022Z,3.40
2018-12-10T07:13:14.658Z,3.30
2018-12-10T07:15:42.456Z,2.87
2018-12-10T07:18:10.383Z,2.77
2018-12-10T07:27:27.555Z,2.20
2018-12-10T07:29:54.441Z,1.83
2018-12-10T07:32:22.286Z,2.00
2018-12-10T07:34:50.236Z,1.77
2018-12-10T07:37:17.199Z,1.90
2018-12-10T07:39:43.885Z,1.90
2018-12-10T07:42:10.561Z,1.90
2018-12-10T07:44:37.533Z,1.80
2018-12-10T07:47:04.164Z,2.20
2018-12-10T07:49:30.869Z,1.97
2018-12-10T07:51:57.497Z,2.67
2018-12-10T07:54:24.132Z,2.40
2018-12-10T07:56:51.184Z,3.07
2018-12-10T07:59:18.997Z,3.53
2018-12-10T08:01:46.040Z,3.40
2018-12-10T08:04:13.190Z,3.50
2018-12-10T08:06:40.148Z,3.63
2018-12-10T08:09:06.806Z,2.80
2018-12-10T08:11:33.999Z,3.23
2018-12-10T08:14:00.901Z,2.90
2018-12-10T08:16:27.546Z,2.50
2018-12-10T08:18:54.339Z,3.00
2018-12-10T08:21:21.215Z,4.40
2018-12-10T08:23:47.887Z,4.40
2018-12-10T08:26:14.625Z,5.67
2018-12-10T08:28:41.513Z,4.97
2018-12-10T08:31:08.579Z,5.20
2018-12-10T08:33:35.460Z,5.30
2018-12-10T08:36:02.271Z,5.03
2018-12-10T08:38:28.961Z,5.20
2018-12-10T08:40:56.023Z,5.30
2018-12-10T08:43:22.674Z,6.33
2018-12-10T08:45:49.656Z,7.40
2018-12-10T08:48:16.766Z,7.93
2018-12-10T08:50:43.712Z,8.20
2018-12-10T08:53:10.393Z,6.90
2018-12-10T08:55:37.069Z,7.93
2018-12-10T08:58:03.706Z,8.40
2018-12-10T09:00:30.337Z,8.27
2018-12-10T09:02:57.015Z,7.60
2018-12-10T09:05:23.642Z,9.27
2018-12-10T09:07:50.286Z,13.23
2018-12-10T09:10:17.308Z,11.50
2018-12-10T09:12:47.155Z,10.03
2018-12-10T09:15:12.648Z,8.50
2018-12-10T09:17:39.332Z,8.07
2018-12-10T09:20:05.985Z,9.17
2018-12-10T09:22:32.633Z,9.13
2018-12-10T09:24:59.324Z,8.87
2018-12-10T09:27:25.958Z,8.57
2018-12-10T09:29:52.606Z,10.20
2018-12-10T09:32:20.727Z,9.83
2018-12-10T09:34:47.384Z,10.27
2018-12-10T09:37:14.028Z,10.67
2018-12-10T09:39:41.070Z,10.47
2018-12-10T09:42:07.708Z,9.90
2018-12-10T09:44:34.351Z,10.23
2018-12-10T09:47:01.046Z,9.73
2018-12-10T09:49:27.709Z,9.93
2018-12-10T09:51:54.380Z,10.53
2018-12-10T09:54:21.319Z,10.07
2018-12-10T09:56:47.948Z,9.93
2018-12-10T09:59:14.582Z,10.00
2018-12-10T10:01:41.305Z,10.13
2018-12-10T10:04:07.967Z,10.20
2018-12-10T10:06:34.657Z,11.13
2018-12-10T10:09:02.023Z,9.80
2018-12-10T10:11:28.684Z,10.83
2018-12-10T10:13:55.318Z,10.97
2018-12-10T10:16:22.000Z,10.03
2018-12-10T10:18:48.644Z,9.57
2018-12-10T10:21:15.298Z,11.10
2018-12-10T10:23:42.287Z,9.57
2018-12-10T10:26:08.931Z,9.63
2018-12-10T10:28:35.585Z,10.90
2018-12-10T10:31:02.318Z,10.07
2018-12-10T10:33:32.445Z,9.57
2018-12-10T10:35:57.654Z,9.53
2018-12-10T10:38:24.481Z,10.20
2018-12-10T10:40:51.170Z,9.80
2018-12-10T10:43:17.805Z,9.13
2018-12-10T10:45:44.702Z,9.33
2018-12-10T10:48:11.345Z,9.17
2018-12-10T10:50:38.015Z,10.23
2018-12-10T10:53:05.165Z,9.53
2018-12-10T10:55:31.821Z,9.00
2018-12-10T10:57:58.460Z,8.40
2018-12-10T11:00:30.825Z,8.23
2018-12-10T11:03:12.020Z,8.80
2018-12-10T11:05:39.321Z,7.33
2018-12-10T11:08:05.991Z,8.10
2018-12-10T11:10:32.632Z,8.53
2018-12-10T11:12:59.333Z,8.43
2018-12-10T11:15:25.992Z,9.40
2018-12-10T11:17:52.634Z,9.63
2018-12-10T11:20:19.322Z,7.13
2018-12-10T11:22:46.002Z,8.70
2018-12-10T11:25:12.665Z,8.43
2018-12-10T11:27:39.358Z,8.50
2018-12-10T11:30:06.037Z,8.67
2018-12-10T11:32:32.726Z,8.37
2018-12-10T11:35:00.060Z,8.57
2018-12-10T11:37:26.697Z,8.00
2018-12-10T11:39:53.358Z,8.53
2018-12-10T11:42:20.035Z,7.87
2018-12-10T11:44:46.693Z,9.50
2018-12-10T11:47:13.449Z,8.30
2018-12-10T11:49:40.270Z,8.33
2018-12-10T11:52:06.916Z,9.07
2018-12-10T11:54:34.787Z,8.23
2018-12-10T11:57:02.705Z,10.07
2018-12-10T11:59:29.677Z,9.13
2018-12-10T12:01:56.747Z,8.73
2018-12-10T12:04:23.415Z,7.87
2018-12-10T12:06:50.074Z,7.57
2018-12-10T12:09:17.061Z,8.13
2018-12-10T12:11:43.780Z,8.73
2018-12-10T12:14:10.746Z,10.33
2018-12-10T12:16:37.537Z,8.00
2018-12-10T12:19:11.200Z,8.27
2018-12-10T12:21:33.508Z,7.60
2018-12-10T12:24:01.377Z,7.47
2018-12-10T12:26:32.557Z,8.73
2018-12-10T12:29:00.387Z,8.90
2018-12-10T12:31:27.023Z,8.73
2018-12-10T12:33:53.710Z,7.70
2018-12-10T12:36:20.361Z,7.53
2018-12-10T12:38:46.995Z,8.93
2018-12-10T12:41:15.306Z,10.27
2018-12-10T12:43:42.460Z,8.80
2018-12-10T12:46:10.135Z,8.60
2018-12-10T12:48:37.022Z,8.27
2018-12-10T12:51:03.805Z,8.80
2018-12-10T12:53:30.465Z,7.17
2018-12-10T12:55:57.365Z,7.87
2018-12-10T12:58:24.165Z,7.70
2018-12-10T13:00:50.811Z,8.27
2018-12-10T13:03:17.506Z,9.07
2018-12-10T13:05:44.496Z,8.03
2018-12-10T13:08:11.182Z,6.57
2018-12-10T13:10:37.868Z,7.57
2018-12-10T13:13:04.780Z,6.87
2018-12-10T13:15:31.487Z,7.70
2018-12-10T13:17:58.164Z,6.90
2018-12-10T13:20:25.178Z,7.43
2018-12-10T13:22:51.887Z,7.73
2018-12-10T13:25:19.291Z,8.47
2018-12-10T13:27:46.276Z,8.00
2018-12-10T13:30:13.301Z,7.43
2018-12-10T13:32:39.998Z,7.60
2018-12-10T13:35:06.670Z,8.53
2018-12-10T13:37:33.636Z,8.30
2018-12-10T13:40:00.300Z,8.03
2018-12-10T13:42:26.936Z,8.17
2018-12-10T13:44:53.577Z,7.97
2018-12-10T13:47:20.272Z,8.13
2018-12-10T13:49:46.907Z,7.30
2018-12-10T13:52:13.546Z,8.23
2018-12-10T13:54:40.436Z,8.77
2018-12-10T13:57:07.136Z,10.93
2018-12-10T13:59:33.801Z,10.87
2018-12-10T14:02:00.475Z,13.20
2018-12-10T14:04:29.089Z,16.57
2018-12-10T14:06:55.729Z,13.77
2018-12-10T14:09:22.429Z,12.40
2018-12-10T14:11:49.093Z,11.00
2018-12-10T14:14:15.734Z,10.67
2018-12-10T14:16:42.423Z,10.60
2018-12-10T14:19:09.079Z,10.83
2018-12-10T14:21:35.732Z,8.80
2018-12-10T14:24:02.402Z,9.27
2018-12-10T14:26:29.042Z,8.70
2018-12-10T14:28:55.781Z,6.93
2018-12-10T14:31:27.272Z,7.73
2018-12-10T14:33:51.298Z,7.37
2018-12-10T14:36:18.276Z,6.43
2018-12-10T14:38:45.760Z,7.90
2018-12-10T14:41:12.405Z,7.57
2018-12-10T14:43:39.047Z,8.23
2018-12-10T14:46:05.824Z,8.17
2018-12-10T14:48:32.690Z,7.93
2018-12-10T14:50:59.336Z,7.27
2018-12-10T14:53:26.237Z,7.30
2018-12-10T14:55:53.014Z,9.27
2018-12-10T14:58:19.652Z,8.27
2018-12-10T15:00:46.329Z,10.83
2018-12-10T15:03:14.164Z,11.63
2018-12-10T15:05:40.801Z,13.00
2018-12-10T15:08:08.709Z,13.03
2018-12-10T15:10:35.363Z,11.67
2018-12-10T15:13:02.038Z,9.47
2018-12-10T15:15:29.482Z,9.43
2018-12-10T15:17:56.450Z,10.67
2018-12-10T15:20:23.084Z,11.13
2018-12-10T15:22:49.763Z,10.97
2018-12-10T15:25:18.023Z,10.90
2018-12-10T15:27:44.681Z,9.83
2018-12-10T15:30:11.382Z,10.40
2018-12-10T15:32:38.012Z,11.63
2018-12-10T15:35:04.965Z,12.60
2018-12-10T15:37:31.683Z,10.47
2018-12-10T15:39:58.654Z,10.73
2018-12-10T15:42:25.305Z,11.13
2018-12-10T15:44:52.003Z,10.63
2018-12-10T15:47:18.973Z,10.40
2018-12-10T15:49:45.650Z,10.87
2018-12-10T15:52:12.330Z,11.07
2018-12-10T15:54:39.302Z,10.63
2018-12-10T15:57:05.948Z,10.43
2018-12-10T15:59:32.631Z,9.60
2018-12-10T16:01:59.290Z,10.23
2018-12-10T16:04:26.243Z,8.90
2018-12-10T16:06:52.933Z,11.03
2018-12-10T16:09:19.601Z,9.30
2018-12-10T16:11:46.252Z,8.57
2018-12-10T16:14:13.244Z,8.33
2018-12-10T16:16:39.908Z,10.30
2018-12-10T16:19:06.554Z,9.67
2018-12-10T16:21:34.453Z,9.67
2018-12-10T16:24:01.412Z,10.90
2018-12-10T16:26:28.255Z,11.13
2018-12-10T16:28:55.152Z,12.00
2018-12-10T16:31:21.808Z,11.20
2018-12-10T16:33:48.781Z,14.80
2018-12-10T16:36:15.687Z,13.60
2018-12-10T16:38:42.468Z,13.57
2018-12-10T16:41:09.105Z,13.97
2018-12-10T16:43:36.277Z,12.50
2018-12-10T16:46:03.208Z,13.33
2018-12-10T16:48:29.876Z,12.70
2018-12-10T16:50:56.562Z,13.40
2018-12-10T16:53:23.525Z,13.13
2018-12-10T16:55:50.610Z,13.93
2018-12-10T16:58:17.493Z,14.30
2018-12-10T17:00:44.256Z,15.57
2018-12-10T17:03:10.969Z,16.00
2018-12-10T17:05:38.104Z,16.93
2018-12-10T17:08:05.029Z,16.70
2018-12-10T17:10:31.686Z,18.60
2018-12-10T17:13:55.700Z,16.97
2018-12-10T17:16:22.666Z,17.33
2018-12-10T17:18:49.316Z,17.67
2018-12-10T17:21:15.992Z,15.00
2018-12-10T17:23:42.662Z,17.07
2018-12-10T17:26:09.623Z,22.47
2018-12-10T17:28:36.292Z,20.53
2018-12-10T17:31:02.937Z,20.57
2018-12-10T17:33:29.588Z,21.30
2018-12-10T17:35:56.297Z,18.33
2018-12-10T17:38:23.216Z,18.30
2018-12-10T17:40:49.870Z,19.87
2018-12-10T17:43:17.002Z,17.97
2018-12-10T17:45:44.819Z,16.60
2018-12-10T17:48:11.471Z,15.67
2018-12-10T17:50:38.259Z,14.00
2018-12-10T17:53:05.142Z,14.77
2018-12-10T17:55:31.806Z,14.77
2018-12-10T17:57:58.522Z,14.30
2018-12-10T18:00:25.427Z,12.90
2018-12-10T18:02:52.063Z,13.17
2018-12-10T18:05:19.211Z,11.37
2018-12-10T18:07:46.196Z,11.00
2018-12-10T18:10:13.259Z,11.17
2018-12-10T18:12:39.981Z,10.60
2018-12-10T18:15:06.627Z,10.50
2018-12-10T18:17:33.269Z,10.43
2018-12-10T18:19:59.958Z,10.40
2018-12-10T18:22:26.815Z,11.03
2018-12-10T18:24:53.487Z,12.53
2018-12-10T18:27:20.165Z,10.37
2018-12-10T18:29:47.306Z,11.43
2018-12-10T18:32:14.191Z,10.90
2018-12-10T18:34:40.873Z,11.20
2018-12-10T18:37:07.530Z,11.57
2018-12-10T18:39:34.511Z,12.13
2018-12-10T18:42:01.197Z,12.33
2018-12-10T18:44:27.832Z,13.40
2018-12-10T18:46:54.813Z,13.10
2018-12-10T18:49:21.541Z,13.23
2018-12-10T18:51:49.021Z,14.20
2018-12-10T18:54:16.358Z,15.13
2018-12-10T18:56:43.053Z,12.60
2018-12-10T18:59:09.705Z,12.70
2018-12-10T19:01:36.344Z,13.70
2018-12-10T19:04:03.044Z,13.13
2018-12-10T19:06:29.961Z,13.93
2018-12-10T19:08:56.789Z,14.97
2018-12-10T19:11:23.865Z,14.70
2018-12-10T19:13:50.724Z,13.70
2018-12-10T19:16:17.373Z,13.33
2018-12-10T19:18:44.079Z,13.23
2018-12-10T19:21:11.033Z,13.37
2018-12-10T19:23:38.822Z,13.27
2018-12-10T19:26:05.996Z,13.07
2018-12-10T19:28:32.667Z,13.73
2018-12-10T19:30:59.635Z,13.93
2018-12-10T19:33:26.328Z,13.63
2018-12-10T19:35:52.983Z,14.63
2018-12-10T19:38:19.986Z,14.10
2018-12-10T19:40:46.672Z,13.53
2018-12-10T19:43:13.660Z,13.30
2018-12-10T19:45:41.513Z,13.00
2018-12-10T19:48:08.413Z,13.27
2018-12-10T19:50:35.201Z,12.73
2018-12-10T19:53:01.872Z,14.50
2018-12-10T19:55:28.628Z,14.50
2018-12-10T19:57:55.541Z,13.47
2018-12-10T20:00:22.186Z,13.67
2018-12-10T20:02:49.362Z,12.10
2018-12-10T20:05:16.242Z,12.23
2018-12-10T20:07:42.897Z,12.73
2018-12-10T20:10:09.661Z,13.40
2018-12-10T20:12:36.370Z,12.20
2018-12-10T20:15:04.293Z,12.93
2018-12-10T20:17:31.117Z,11.93
2018-12-10T20:19:57.796Z,12.23
2018-12-10T20:22:24.769Z,13.60
2018-12-10T20:24:51.465Z,12.37
2018-12-10T20:27:19.270Z,12.20
2018-12-10T20:29:45.944Z,12.20
2018-12-10T20:32:13.458Z,12.10
2018-12-10T20:34:40.467Z,11.33
2018-12-10T20:37:07.493Z,11.60
2018-12-10T20:39:34.213Z,12.17
2018-12-10T20:42:01.169Z,12.27
2018-12-10T20:44:28.180Z,12.40
2018-12-10T20:46:54.885Z,11.70
2018-12-10T20:49:21.546Z,11.50
2018-12-10T20:51:48.504Z,12.23
2018-12-10T20:54:15.433Z,12.70
2018-12-10T20:56:42.284Z,14.07
2018-12-10T20:59:09.281Z,13.43
2018-12-10T21:01:36.072Z,13.50
2018-12-10T21:04:02.972Z,13.50
2018-12-10T21:06:35.044Z,12.27
2018-12-10T21:09:02.950Z,12.80
2018-12-10T21:11:29.832Z,12.17
2018-12-10T21:13:56.483Z,12.23
2018-12-10T21:16:23.156Z,11.80
2018-12-10T21:18:50.230Z,14.43
2018-12-10T21:21:17.206Z,14.17
2018-12-10T21:23:43.902Z,12.63
2018-12-10T21:26:10.873Z,11.37
2018-12-10T21:28:37.542Z,13.00
2018-12-10T21:31:04.323Z,17.90
2018-12-10T21:33:31.221Z,14.07
2018-12-10T21:35:57.878Z,14.77
2018-12-10T21:38:24.739Z,15.33
2018-12-10T21:40:51.545Z,14.83
2018-12-10T21:43:18.185Z,14.47
2018-12-10T21:45:44.878Z,14.00
2018-12-10T21:48:11.845Z,14.67
2018-12-10T21:50:38.496Z,13.17
2018-12-10T21:53:05.191Z,14.17
2018-12-10T21:55:31.842Z,13.87
2018-12-10T21:57:58.817Z,13.63
2018-12-10T22:00:25.521Z,14.70
2018-12-10T22:02:52.489Z,14.23
2018-12-10T22:05:19.122Z,14.10
2018-12-10T22:07:45.816Z,13.37
2018-12-10T22:10:12.454Z,12.40
2018-12-10T22:12:39.275Z,11.43
2018-12-10T22:15:06.152Z,12.70
2018-12-10T22:17:32.811Z,11.93
2018-12-10T22:19:59.847Z,12.07
2018-12-10T22:22:26.530Z,11.33
2018-12-10T22:24:53.463Z,11.47
2018-12-10T22:27:21.343Z,10.43
2018-12-10T22:29:48.053Z,11.40
2018-12-10T22:32:15.029Z,11.53
2018-12-10T22:34:41.685Z,11.43
2018-12-10T22:37:09.603Z,11.00
2018-12-10T22:39:36.602Z,10.10
2018-12-10T22:42:03.253Z,10.80
2018-12-10T22:44:29.930Z,10.53
2018-12-10T22:46:56.884Z,9.83
2018-12-10T22:49:23.537Z,9.70
2018-12-10T22:51:50.648Z,10.67
2018-12-10T22:54:17.280Z,9.90
2018-12-10T22:56:43.931Z,10.17
2018-12-10T22:59:10.983Z,9.50
2018-12-10T23:01:37.979Z,10.53
2018-12-10T23:04:04.626Z,9.43
2018-12-10T23:06:31.313Z,9.40
2018-12-10T23:08:58.324Z,10.27
2018-12-10T23:11:25.333Z,10.47
2018-12-10T23:13:52.529Z,9.40
2018-12-10T23:16:19.442Z,9.40
2018-12-10T23:18:47.291Z,8.80
2018-12-10T23:21:13.987Z,9.13
2018-12-10T23:23:40.621Z,8.77
2018-12-10T23:26:07.267Z,8.70
2018-12-10T23:28:33.944Z,9.60
2018-12-10T23:31:00.880Z,8.53
2018-12-10T23:33:28.742Z,8.97
2018-12-10T23:35:55.916Z,8.73
2018-12-10T23:38:22.840Z,8.73
2018-12-10T23:40:50.711Z,8.00
2018-12-10T23:43:24.021Z,8.33
2018-12-10T23:45:50.950Z,8.43
2018-12-10T23:48:18.824Z,7.67
2018-12-10T23:50:45.509Z,9.17
2018-12-10T23:53:13.326Z,8.80
2018-12-10T23:55:41.202Z,9.37
2018-12-10T23:58:10.061Z,9.00
